Impacts METAR Board INFO
IDs:

KSEA - Seattle-Tacoma Intl, WA, US

Updated at: 0646 UTC 19 Nov 2017
Potential Impact None Slight Moderate High
Time18/18Z 18/19Z 18/20Z 18/21Z 18/22Z 18/23Z 19/00Z 19/01Z 19/02Z 19/03Z 19/04Z 19/05Z 19/06Z
VIS10 10 10 10 10 10 10 10 10 10 10 10 10
CIG170 170 170 220 220 250 250 240 240 220 220 190 150
CoverBKNBKNBKNBKNBKNBKNBKNBKNBKNBKNOVCOVCOVC
FltCatVFRVFRVFRVFRVFRVFRVFRVFRVFRVFRVFRVFRVFR
WX--------------------------
WDir15019021002102800170190170130150140
WSpd7 4 4 3 3 6 0 3 5 6 7 7 7
WGst-- -- -- -- -- -- -- -- -- -- -- -- --
Raw hourly METARs
KSEA 181753Z 15007KT 10SM FEW043 BKN170 08/02 A3027 RMK AO2 SLP259 T00830017 10083 20072 58005
KSEA 181853Z 19004KT 10SM FEW043 BKN170 09/03 A3026 RMK AO2 SLP254 T00890033
KSEA 181953Z 21004KT 10SM FEW043 BKN170 10/02 A3024 RMK AO2 SLP248 T01000022
KSEA 182053Z VRB03KT 10SM FEW020 FEW150 BKN220 11/03 A3020 RMK AO2 SLP233 T01110033 58024
KSEA 182153Z 21003KT 10SM FEW020 SCT150 BKN220 11/02 A3017 RMK AO2 SLP225 ACSL SE T01110017
KSEA 182253Z 28006KT 10SM FEW020 SCT150 BKN250 10/03 A3017 RMK AO2 SLP223 ACSL SE T01000028
KSEA 182353Z 00000KT 10SM FEW020 SCT140 BKN250 09/03 A3016 RMK AO2 SLP221 ACSL SE T00940033 10111 20083 56013
KSEA 190053Z 17003KT 10SM FEW030 SCT140 BKN240 08/03 A3014 RMK AO2 SLP215 ACSL SE T00830033
KSEA 190153Z 19005KT 10SM FEW035 SCT140 BKN240 08/03 A3014 RMK AO2 SLP215 T00780033
KSEA 190253Z 17006KT 10SM FEW035 BKN220 07/03 A3014 RMK AO2 SLP214 T00720028 56008
KSEA 190353Z 13007KT 10SM FEW035 OVC220 08/03 A3014 RMK AO2 SLP214 T00780033
KSEA 190453Z 15007KT 10SM FEW035 OVC190 07/03 A3013 RMK AO2 SLP212 T00720033
KSEA 190553Z 14007KT 10SM FEW035 OVC150 07/03 A3012 RMK AO2 SLP207 T00670028 10094 20067 58007